Boyd, Iowa
Current Conditions -  °F | °C
As of 10:15 AM on Thursday 18 Dec 2014 (Local Time) from KCCY Reporting Station
Overcast Overcast  
Wind Chill: 18°   Ceiling: 900
Heat Index: 18°   Visibility: 7mi
Dew Point: 16°   Wind: 0mph
Humidity: 93%   Direction: NA
Pressure: 30.3"   Gusts: NA
Location:  43.0559°N, 92.3113°W
Report Text: KCCY 181615Z AUTO 00000KT 7SM OVC009 M08/M09 A3030 RMK AO2
Loading
Personal Weather Stations






























Interactive Weather Map New forecast layout! Learn more

10-Day Weather Forecast

Advertisements
Track Severe Weather on mobile